sensor_id;sensor_type;location;lat;lon;timestamp;pressure;altitude;pressure_sealevel;temperature;humidity
73341;BME280;61578;52.002;5.468;2023-09-07T00:00:16;101913.44;;;20.53;78.00
73341;BME280;61578;52.002;5.468;2023-09-07T00:00:47;101905.19;;;20.55;77.88
73341;BME280;61578;52.002;5.468;2023-09-07T00:01:18;101908.03;;;20.53;77.60
73341;BME280;61578;52.002;5.468;2023-09-07T00:01:49;101904.59;;;20.51;77.83
73341;BME280;61578;52.002;5.468;2023-09-07T00:02:23;101900.78;;;20.54;77.73
73341;BME280;61578;52.002;5.468;2023-09-07T00:02:53;101905.19;;;20.55;77.89
73341;BME280;61578;52.002;5.468;2023-09-07T00:03:24;101902.63;;;20.53;77.72
73341;BME280;61578;52.002;5.468;2023-09-07T00:03:55;101871.28;;;20.32;78.07
73341;BME280;61578;52.002;5.468;2023-09-07T00:04:26;101900.06;;;20.52;78.04
73341;BME280;61578;52.002;5.468;2023-09-07T00:04:57;101908.16;;;20.52;78.13
73341;BME280;61578;52.002;5.468;2023-09-07T00:05:28;101905.47;;;20.52;78.17
73341;BME280;61578;52.002;5.468;2023-09-07T00:05:59;101899.22;;;20.51;78.03
73341;BME280;61578;52.002;5.468;2023-09-07T00:06:30;101899.47;;;20.48;77.89
73341;BME280;61578;52.002;5.468;2023-09-07T00:07:01;101899.34;;;20.50;78.06
73341;BME280;61578;52.002;5.468;2023-09-07T00:07:32;101900.34;;;20.49;78.16
73341;BME280;61578;52.002;5.468;2023-09-07T00:08:03;101897.91;;;20.46;78.02
73341;BME280;61578;52.002;5.468;2023-09-07T00:08:34;101893.34;;;20.46;78.19
73341;BME280;61578;52.002;5.468;2023-09-07T00:09:05;101900.59;;;20.46;78.36
73341;BME280;61578;52.002;5.468;2023-09-07T00:09:39;101898.91;;;20.45;78.04
73341;BME280;61578;52.002;5.468;2023-09-07T00:10:10;101887.66;;;20.40;78.42
73341;BME280;61578;52.002;5.468;2023-09-07T00:10:40;101897.06;;;20.45;78.18
73341;BME280;61578;52.002;5.468;2023-09-07T00:11:12;101896.22;;;20.45;78.48
73341;BME280;61578;52.002;5.468;2023-09-07T00:11:43;101896.34;;;20.43;78.30
73341;BME280;61578;52.002;5.468;2023-09-07T00:12:14;101895.50;;;20.43;78.19
73341;BME280;61578;52.002;5.468;2023-09-07T00:12:45;101888.53;;;20.40;78.37
73341;BME280;61578;52.002;5.468;2023-09-07T00:13:16;101893.66;;;20.43;78.02
73341;BME280;61578;52.002;5.468;2023-09-07T00:13:47;101895.50;;;20.43;78.47
73341;BME280;61578;52.002;5.468;2023-09-07T00:14:18;101896.34;;;20.43;78.11
73341;BME280;61578;52.002;5.468;2023-09-07T00:14:49;101883.84;;;20.42;78.38
73341;BME280;61578;52.002;5.468;2023-09-07T00:15:20;101888.38;;;20.42;78.58
73341;BME280;61578;52.002;5.468;2023-09-07T00:15:51;101888.38;;;20.42;78.21
73341;BME280;61578;52.002;5.468;2023-09-07T00:16:22;101881.66;;;20.36;78.10
73341;BME280;61578;52.002;5.468;2023-09-07T00:16:53;101891.09;;;20.42;78.22
73341;BME280;61578;52.002;5.468;2023-09-07T00:17:25;101894.03;;;20.39;78.64
73341;BME280;61578;52.002;5.468;2023-09-07T00:17:56;101887.22;;;20.35;78.58
73341;BME280;61578;52.002;5.468;2023-09-07T00:18:27;101894.03;;;20.39;78.44
73341;BME280;61578;52.002;5.468;2023-09-07T00:18:59;101892.34;;;20.38;78.51
73341;BME280;61578;52.002;5.468;2023-09-07T00:19:30;101889.03;;;20.34;78.67
73341;BME280;61578;52.002;5.468;2023-09-07T00:20:03;101891.75;;;20.34;78.82
73341;BME280;61578;52.002;5.468;2023-09-07T00:20:41;101885.38;;;20.35;78.76
73341;BME280;61578;52.002;5.468;2023-09-07T00:21:12;101890.88;;;20.34;78.80
73341;BME280;61578;52.002;5.468;2023-09-07T00:21:43;101893.59;;;20.34;78.50
73341;BME280;61578;52.002;5.468;2023-09-07T00:22:13;101890.28;;;20.30;78.38
73341;BME280;61578;52.002;5.468;2023-09-07T00:22:45;101891.88;;;20.33;78.79
73341;BME280;61578;52.002;5.468;2023-09-07T00:23:16;101895.56;;;20.32;78.20
73341;BME280;61578;52.002;5.468;2023-09-07T00:23:47;101891.16;;;20.31;78.47
73341;BME280;61578;52.002;5.468;2023-09-07T00:24:23;101880.91;;;20.25;78.92
73341;BME280;61578;52.002;5.468;2023-09-07T00:25:04;101883.31;;;20.28;79.10
73341;BME280;61578;52.002;5.468;2023-09-07T00:25:44;101891.28;;;20.29;79.16
73341;BME280;61578;52.002;5.468;2023-09-07T00:26:17;101890.41;;;20.29;79.05
73341;BME280;61578;52.002;5.468;2023-09-07T00:26:49;101888.56;;;20.29;78.74
73341;BME280;61578;52.002;5.468;2023-09-07T00:27:20;101894.97;;;20.28;78.99
73341;BME280;61578;52.002;5.468;2023-09-07T00:27:51;101890.28;;;20.30;78.58
73341;BME280;61578;52.002;5.468;2023-09-07T00:28:22;101887.72;;;20.29;79.12
73341;BME280;61578;52.002;5.468;2023-09-07T00:28:53;101888.72;;;20.28;79.03
73341;BME280;61578;52.002;5.468;2023-09-07T00:29:24;101890.56;;;20.27;79.05
73341;BME280;61578;52.002;5.468;2023-09-07T00:29:55;101895.94;;;20.27;78.63
73341;BME280;61578;52.002;5.468;2023-09-07T00:30:26;101890.84;;;20.24;78.59
73341;BME280;61578;52.002;5.468;2023-09-07T00:30:57;101856.69;;;20.04;78.98
73341;BME280;61578;52.002;5.468;2023-09-07T00:31:28;101886.56;;;20.21;78.73
73341;BME280;61578;52.002;5.468;2023-09-07T00:31:59;101881.31;;;20.20;79.14
73341;BME280;61578;52.002;5.468;2023-09-07T00:32:32;101854.97;;;20.03;78.96
73341;BME280;61578;52.002;5.468;2023-09-07T00:33:04;101892.22;;;20.18;78.93
73341;BME280;61578;52.002;5.468;2023-09-07T00:37:41;101882.97;;;20.11;79.12
73341;BME280;61578;52.002;5.468;2023-09-07T00:38:12;101883.22;;;20.08;78.87
73341;BME280;61578;52.002;5.468;2023-09-07T00:38:42;101877.97;;;20.07;79.10
73341;BME280;61578;52.002;5.468;2023-09-07T00:39:13;101881.53;;;20.07;79.50
73341;BME280;61578;52.002;5.468;2023-09-07T00:39:44;101879.97;;;20.05;79.37
73341;BME280;61578;52.002;5.468;2023-09-07T00:40:14;101883.50;;;20.05;79.04
73341;BME280;61578;52.002;5.468;2023-09-07T00:40:45;101877.09;;;20.06;79.02
73341;BME280;61578;52.002;5.468;2023-09-07T00:41:16;101879.97;;;20.05;79.27
73341;BME280;61578;52.002;5.468;2023-09-07T00:41:47;101879.38;;;20.01;79.05
73341;BME280;61578;52.002;5.468;2023-09-07T00:42:17;101877.41;;;20.03;79.12
73341;BME280;61578;52.002;5.468;2023-09-07T00:42:48;101880.22;;;20.02;78.92
73341;BME280;61578;52.002;5.468;2023-09-07T00:43:19;101885.63;;;20.02;79.44
73341;BME280;61578;52.002;5.468;2023-09-07T00:43:50;101880.34;;;20.00;78.95
73341;BME280;61578;52.002;5.468;2023-09-07T00:44:20;101876.81;;;20.00;79.43
73341;BME280;61578;52.002;5.468;2023-09-07T00:44:51;101884.91;;;20.00;79.21
73341;BME280;61578;52.002;5.468;2023-09-07T00:45:22;101890.16;;;20.01;79.13
73341;BME280;61578;52.002;5.468;2023-09-07T00:45:53;101878.50;;;20.01;78.92
73341;BME280;61578;52.002;5.468;2023-09-07T00:46:25;101883.19;;;19.99;79.03
73341;BME280;61578;52.002;5.468;2023-09-07T00:46:57;101878.66;;;19.99;79.55
73341;BME280;61578;52.002;5.468;2023-09-07T00:47:28;101883.06;;;20.00;79.29
73341;BME280;61578;52.002;5.468;2023-09-07T00:47:59;101870.25;;;19.93;79.14
73341;BME280;61578;52.002;5.468;2023-09-07T00:48:30;101873.69;;;19.95;79.08
73341;BME280;61578;52.002;5.468;2023-09-07T00:49:00;101887.97;;;19.95;79.28
73341;BME280;61578;52.002;5.468;2023-09-07T00:49:32;101880.19;;;19.92;78.95
73341;BME280;61578;52.002;5.468;2023-09-07T00:50:04;101881.28;;;19.90;79.22
73341;BME280;61578;52.002;5.468;2023-09-07T00:50:42;101875.03;;;19.89;79.26
73341;BME280;61578;52.002;5.468;2023-09-07T00:51:13;101881.28;;;19.90;79.44
73341;BME280;61578;52.002;5.468;2023-09-07T00:51:44;101887.53;;;19.90;79.63
73341;BME280;61578;52.002;5.468;2023-09-07T00:52:16;101873.47;;;19.87;79.68
73341;BME280;61578;52.002;5.468;2023-09-07T00:52:48;101890.22;;;19.90;79.34
73341;BME280;61578;52.002;5.468;2023-09-07T00:53:20;101874.06;;;19.90;79.50
73341;BME280;61578;52.002;5.468;2023-09-07T00:53:50;101878.59;;;19.90;79.60
73341;BME280;61578;52.002;5.468;2023-09-07T00:54:23;101880.44;;;19.89;79.44
73341;BME280;61578;52.002;5.468;2023-09-07T00:54:54;101875.16;;;19.88;79.51
73341;BME280;61578;52.002;5.468;2023-09-07T00:55:27;101884.13;;;19.88;79.43
73341;BME280;61578;52.002;5.468;2023-09-07T00:55:59;101884.00;;;19.90;79.39
73341;BME280;61578;52.002;5.468;2023-09-07T00:56:31;101868.63;;;19.80;79.58
73341;BME280;61578;52.002;5.468;2023-09-07T00:57:02;101887.78;;;19.87;79.56
73341;BME280;61578;52.002;5.468;2023-09-07T00:57:33;101878.97;;;19.85;79.55
73341;BME280;61578;52.002;5.468;2023-09-07T00:58:04;101885.22;;;19.85;79.75
73341;BME280;61578;52.002;5.468;2023-09-07T00:58:36;101880.84;;;19.84;79.83
73341;BME280;61578;52.002;5.468;2023-09-07T00:59:08;101880.00;;;19.84;79.45
73341;BME280;61578;52.002;5.468;2023-09-07T00:59:40;101868.31;;;19.74;79.63
73341;BME280;61578;52.002;5.468;2023-09-07T01:00:11;101876.44;;;19.83;79.39
73341;BME280;61578;52.002;5.468;2023-09-07T01:00:48;101880.97;;;19.83;79.26
73341;BME280;61578;52.002;5.468;2023-09-07T01:01:21;101875.59;;;19.83;79.51
73341;BME280;61578;52.002;5.468;2023-09-07T01:01:53;101867.28;;;19.75;79.66
73341;BME280;61578;52.002;5.468;2023-09-07T01:02:24;101870.72;;;19.77;80.07
73341;BME280;61578;52.002;5.468;2023-09-07T01:02:56;101871.31;;;19.80;80.16
73341;BME280;61578;52.002;5.468;2023-09-07T01:03:27;101883.81;;;19.81;79.84
73341;BME280;61578;52.002;5.468;2023-09-07T01:03:58;101875.13;;;19.78;79.46
73341;BME280;61578;52.002;5.468;2023-09-07T01:04:28;101875.97;;;19.78;79.43
73341;BME280;61578;52.002;5.468;2023-09-07T01:04:59;101878.66;;;19.78;80.00
73341;BME280;61578;52.002;5.468;2023-09-07T01:05:43;101876.97;;;19.77;79.66
73341;BME280;61578;52.002;5.468;2023-09-07T01:06:52;101878.91;;;19.75;79.82
73341;BME280;61578;52.002;5.468;2023-09-07T01:07:37;101875.53;;;19.73;80.27
73341;BME280;61578;52.002;5.468;2023-09-07T01:08:29;101872.84;;;19.73;80.27
73341;BME280;61578;52.002;5.468;2023-09-07T01:09:11;101872.84;;;19.73;80.00
73341;BME280;61578;52.002;5.468;2023-09-07T01:09:49;101876.38;;;19.74;79.80
73341;BME280;61578;52.002;5.468;2023-09-07T01:10:23;101878.34;;;19.72;79.51
73341;BME280;61578;52.002;5.468;2023-09-07T01:10:54;101878.34;;;19.72;79.76
73341;BME280;61578;52.002;5.468;2023-09-07T01:11:24;101880.19;;;19.71;79.77
73341;BME280;61578;52.002;5.468;2023-09-07T01:11:56;101876.78;;;19.69;79.79
73341;BME280;61578;52.002;5.468;2023-09-07T01:12:27;101874.19;;;19.68;80.02
73341;BME280;61578;52.002;5.468;2023-09-07T01:12:57;101876.91;;;19.68;79.65
73341;BME280;61578;52.002;5.468;2023-09-07T01:13:28;101875.91;;;19.69;79.95
73341;BME280;61578;52.002;5.468;2023-09-07T01:13:59;101876.63;;;19.71;80.04
73341;BME280;61578;52.002;5.468;2023-09-07T01:14:29;101874.06;;;19.69;80.01
73341;BME280;61578;52.002;5.468;2023-09-07T01:15:00;101874.94;;;19.70;79.85
73341;BME280;61578;52.002;5.468;2023-09-07T01:15:31;101875.19;;;19.67;80.08
73341;BME280;61578;52.002;5.468;2023-09-07T01:16:02;101872.34;;;19.68;79.90
73341;BME280;61578;52.002;5.468;2023-09-07T01:16:34;101872.50;;;19.67;80.01
73341;BME280;61578;52.002;5.468;2023-09-07T01:17:07;101881.44;;;19.67;79.82
73341;BME280;61578;52.002;5.468;2023-09-07T01:17:39;101883.25;;;19.67;79.58
73341;BME280;61578;52.002;5.468;2023-09-07T01:18:11;101880.56;;;19.67;79.68
73341;BME280;61578;52.002;5.468;2023-09-07T01:18:45;101867.97;;;19.67;80.27
73341;BME280;61578;52.002;5.468;2023-09-07T01:19:15;101879.47;;;19.69;80.18
73341;BME280;61578;52.002;5.468;2023-09-07T01:19:48;101880.56;;;19.67;79.91
73341;BME280;61578;52.002;5.468;2023-09-07T01:20:23;101881.44;;;19.67;79.73
73341;BME280;61578;52.002;5.468;2023-09-07T01:20:58;101874.63;;;19.63;79.88
73341;BME280;61578;52.002;5.468;2023-09-07T01:21:34;101874.75;;;19.62;79.85
73341;BME280;61578;52.002;5.468;2023-09-07T01:22:08;101875.72;;;19.61;80.10
73341;BME280;61578;52.002;5.468;2023-09-07T01:22:40;101877.31;;;19.63;80.41
73341;BME280;61578;52.002;5.468;2023-09-07T01:23:12;101877.44;;;19.62;79.90
73341;BME280;61578;52.002;5.468;2023-09-07T01:23:44;101884.66;;;19.61;79.85
73341;BME280;61578;52.002;5.468;2023-09-07T01:24:17;101872.31;;;19.59;79.80
73341;BME280;61578;52.002;5.468;2023-09-07T01:24:50;101879.53;;;19.58;79.96
73341;BME280;61578;52.002;5.468;2023-09-07T01:25:23;101869.72;;;19.57;80.26
73341;BME280;61578;52.002;5.468;2023-09-07T01:25:53;101861.56;;;19.47;80.35
73341;BME280;61578;52.002;5.468;2023-09-07T01:26:26;101876.84;;;19.58;80.32
73341;BME280;61578;52.002;5.468;2023-09-07T01:26:58;101873.28;;;19.58;80.12
73341;BME280;61578;52.002;5.468;2023-09-07T01:27:29;101876.97;;;19.57;79.99
73341;BME280;61578;52.002;5.468;2023-09-07T01:28:00;101870.59;;;19.58;80.07
73341;BME280;61578;52.002;5.468;2023-09-07T01:28:30;101873.28;;;19.58;80.14
73341;BME280;61578;52.002;5.468;2023-09-07T01:29:01;101868.88;;;19.57;80.18
73341;BME280;61578;52.002;5.468;2023-09-07T01:29:32;101870.72;;;19.56;80.24
73341;BME280;61578;52.002;5.468;2023-09-07T01:30:04;101876.09;;;19.56;80.30
73341;BME280;61578;52.002;5.468;2023-09-07T01:30:36;101872.44;;;19.57;80.44
73341;BME280;61578;52.002;5.468;2023-09-07T01:31:08;101866.19;;;19.57;80.39
73341;BME280;61578;52.002;5.468;2023-09-07T01:31:39;101873.28;;;19.58;80.06
73341;BME280;61578;52.002;5.468;2023-09-07T01:32:10;101860.91;;;19.55;80.27
73341;BME280;61578;52.002;5.468;2023-09-07T01:32:41;101868.88;;;19.57;80.15
73341;BME280;61578;52.002;5.468;2023-09-07T01:33:11;101872.56;;;19.56;80.26
73341;BME280;61578;52.002;5.468;2023-09-07T01:33:42;101868.88;;;19.57;80.93
73341;BME280;61578;52.002;5.468;2023-09-07T01:34:13;101868.88;;;19.57;80.55
73341;BME280;61578;52.002;5.468;2023-09-07T01:34:44;101868.16;;;19.55;80.81
73341;BME280;61578;52.002;5.468;2023-09-07T01:35:14;101871.84;;;19.54;80.54
73341;BME280;61578;52.002;5.468;2023-09-07T01:35:47;101868.16;;;19.55;80.68
73341;BME280;61578;52.002;5.468;2023-09-07T01:36:17;101862.91;;;19.53;80.89
73341;BME280;61578;52.002;5.468;2023-09-07T01:36:48;101861.06;;;19.54;80.79
73341;BME280;61578;52.002;5.468;2023-09-07T01:37:18;101871.97;;;19.52;80.43
73341;BME280;61578;52.002;5.468;2023-09-07T01:37:49;101871.13;;;19.52;80.62
73341;BME280;61578;52.002;5.468;2023-09-07T01:38:20;101866.84;;;19.49;80.49
73341;BME280;61578;52.002;5.468;2023-09-07T01:38:50;101863.16;;;19.50;80.58
73341;BME280;61578;52.002;5.468;2023-09-07T01:39:21;101861.56;;;19.47;80.71
73341;BME280;61578;52.002;5.468;2023-09-07T01:39:52;101856.41;;;19.44;80.36
73341;BME280;61578;52.002;5.468;2023-09-07T01:40:23;101866.72;;;19.51;80.61
73341;BME280;61578;52.002;5.468;2023-09-07T01:41:06;101868.44;;;19.52;80.94
73341;BME280;61578;52.002;5.468;2023-09-07T01:41:36;101858.50;;;19.52;80.77
73341;BME280;61578;52.002;5.468;2023-09-07T01:42:07;101864.03;;;19.51;80.67
73341;BME280;61578;52.002;5.468;2023-09-07T01:42:38;101865.00;;;19.50;80.55
73341;BME280;61578;52.002;5.468;2023-09-07T01:43:08;101861.31;;;19.51;80.61
73341;BME280;61578;52.002;5.468;2023-09-07T01:43:39;101866.00;;;19.48;80.59
73341;BME280;61578;52.002;5.468;2023-09-07T01:44:09;101851.31;;;19.41;80.84
73341;BME280;61578;52.002;5.468;2023-09-07T01:44:40;101862.53;;;19.46;80.92
73341;BME280;61578;52.002;5.468;2023-09-07T01:45:11;101866.09;;;19.47;80.86
73341;BME280;61578;52.002;5.468;2023-09-07T01:45:41;101869.63;;;19.47;80.73
73341;BME280;61578;52.002;5.468;2023-09-07T01:46:12;101860.81;;;19.45;81.03
73341;BME280;61578;52.002;5.468;2023-09-07T01:46:43;101863.38;;;19.47;81.34
73341;BME280;61578;52.002;5.468;2023-09-07T01:47:13;101842.03;;;19.34;80.97
73341;BME280;61578;52.002;5.468;2023-09-07T01:47:44;101863.63;;;19.44;81.08
73341;BME280;61578;52.002;5.468;2023-09-07T01:48:18;101857.44;;;19.43;80.88
73341;BME280;61578;52.002;5.468;2023-09-07T01:48:49;101869.03;;;19.44;80.76
73341;BME280;61578;52.002;5.468;2023-09-07T01:49:19;101869.03;;;19.44;80.94
73341;BME280;61578;52.002;5.468;2023-09-07T01:49:50;101859.09;;;19.44;80.70
73341;BME280;61578;52.002;5.468;2023-09-07T01:50:20;101861.97;;;19.43;80.57
73341;BME280;61578;52.002;5.468;2023-09-07T01:50:54;101860.25;;;19.42;80.42
73341;BME280;61578;52.002;5.468;2023-09-07T01:51:25;101846.44;;;19.35;80.31
73341;BME280;61578;52.002;5.468;2023-09-07T01:51:58;101855.13;;;19.39;80.95
73341;BME280;61578;52.002;5.468;2023-09-07T01:52:28;101855.50;;;19.34;80.76
73341;BME280;61578;52.002;5.468;2023-09-07T01:52:59;101861.34;;;19.39;80.64
73341;BME280;61578;52.002;5.468;2023-09-07T01:53:32;101855.25;;;19.37;80.72
73341;BME280;61578;52.002;5.468;2023-09-07T01:54:03;101855.13;;;19.39;81.16
73341;BME280;61578;52.002;5.468;2023-09-07T01:54:34;101856.09;;;19.38;80.97
73341;BME280;61578;52.002;5.468;2023-09-07T01:55:05;101859.66;;;19.38;80.94
73341;BME280;61578;52.002;5.468;2023-09-07T01:55:35;101855.38;;;19.36;80.78
73341;BME280;61578;52.002;5.468;2023-09-07T01:56:06;101859.78;;;19.37;80.93
73341;BME280;61578;52.002;5.468;2023-09-07T01:56:37;101856.22;;;19.36;81.27
73341;BME280;61578;52.002;5.468;2023-09-07T01:57:07;101842.31;;;19.31;80.87
73341;BME280;61578;52.002;5.468;2023-09-07T01:57:38;101856.22;;;19.36;81.11
73341;BME280;61578;52.002;5.468;2023-09-07T01:58:09;101851.38;;;19.30;80.99
73341;BME280;61578;52.002;5.468;2023-09-07T01:58:39;101854.63;;;19.34;81.18
73341;BME280;61578;52.002;5.468;2023-09-07T01:59:11;101849.25;;;19.34;80.78
73341;BME280;61578;52.002;5.468;2023-09-07T01:59:41;101851.94;;;19.34;81.18
73341;BME280;61578;52.002;5.468;2023-09-07T02:00:12;101852.22;;;19.31;81.18
73341;BME280;61578;52.002;5.468;2023-09-07T02:00:43;101849.66;;;19.29;80.79
73341;BME280;61578;52.002;5.468;2023-09-07T02:01:24;101850.38;;;19.31;80.71
73341;BME280;61578;52.002;5.468;2023-09-07T02:01:56;101858.47;;;19.31;80.88
73341;BME280;61578;52.002;5.468;2023-09-07T02:02:26;101851.38;;;19.30;81.39
73341;BME280;61578;52.002;5.468;2023-09-07T02:02:57;101854.19;;;19.29;81.29
73341;BME280;61578;52.002;5.468;2023-09-07T02:03:28;101859.31;;;19.32;81.39
73341;BME280;61578;52.002;5.468;2023-09-07T02:04:01;101858.47;;;19.31;80.91
73341;BME280;61578;52.002;5.468;2023-09-07T02:04:32;101856.75;;;19.30;80.82
73341;BME280;61578;52.002;5.468;2023-09-07T02:05:03;101842.09;;;19.23;80.91
73341;BME280;61578;52.002;5.468;2023-09-07T02:05:34;101860.44;;;19.29;81.28
73341;BME280;61578;52.002;5.468;2023-09-07T02:06:07;101852.47;;;19.28;81.36
73341;BME280;61578;52.002;5.468;2023-09-07T02:06:38;101862.38;;;19.27;81.22
73341;BME280;61578;52.002;5.468;2023-09-07T02:07:09;101857.25;;;19.24;81.29
73341;BME280;61578;52.002;5.468;2023-09-07T02:07:40;101860.69;;;19.26;80.98
73341;BME280;61578;52.002;5.468;2023-09-07T02:08:10;101862.50;;;19.26;81.24
73341;BME280;61578;52.002;5.468;2023-09-07T02:08:42;101861.78;;;19.24;80.96
73341;BME280;61578;52.002;5.468;2023-09-07T02:09:12;101859.94;;;19.24;81.04
73341;BME280;61578;52.002;5.468;2023-09-07T02:09:43;101860.09;;;19.23;81.13
73341;BME280;61578;52.002;5.468;2023-09-07T02:10:14;101858.38;;;19.22;81.41
73341;BME280;61578;52.002;5.468;2023-09-07T02:10:46;101855.69;;;19.22;81.16
73341;BME280;61578;52.002;5.468;2023-09-07T02:11:17;101856.69;;;19.21;81.55
73341;BME280;61578;52.002;5.468;2023-09-07T02:11:47;101859.25;;;19.22;81.30
73341;BME280;61578;52.002;5.468;2023-09-07T02:12:18;101860.97;;;19.23;81.12
73341;BME280;61578;52.002;5.468;2023-09-07T02:12:49;101857.41;;;19.23;81.24
73341;BME280;61578;52.002;5.468;2023-09-07T02:13:19;101856.56;;;19.22;81.06
73341;BME280;61578;52.002;5.468;2023-09-07T02:13:50;101856.56;;;19.22;81.11
73341;BME280;61578;52.002;5.468;2023-09-07T02:14:21;101848.00;;;19.17;81.19
73341;BME280;61578;52.002;5.468;2023-09-07T02:14:51;101859.25;;;19.22;81.69
73341;BME280;61578;52.002;5.468;2023-09-07T02:15:22;101857.25;;;19.24;81.65
73341;BME280;61578;52.002;5.468;2023-09-07T02:15:53;101859.09;;;19.24;81.32
73341;BME280;61578;52.002;5.468;2023-09-07T02:16:23;101858.25;;;19.23;81.58
73341;BME280;61578;52.002;5.468;2023-09-07T02:16:54;101856.41;;;19.24;81.40
73341;BME280;61578;52.002;5.468;2023-09-07T02:17:25;101856.69;;;19.21;81.25
73341;BME280;61578;52.002;5.468;2023-09-07T02:17:56;101859.38;;;19.21;81.62
73341;BME280;61578;52.002;5.468;2023-09-07T02:18:26;101854.84;;;19.21;81.66
73341;BME280;61578;52.002;5.468;2023-09-07T02:19:05;101853.97;;;19.21;81.37
73341;BME280;61578;52.002;5.468;2023-09-07T02:19:37;101858.38;;;19.22;81.54
73341;BME280;61578;52.002;5.468;2023-09-07T02:20:08;101855.56;;;19.23;81.54
73341;BME280;61578;52.002;5.468;2023-09-07T02:20:40;101849.19;;;19.24;81.36
73341;BME280;61578;52.002;5.468;2023-09-07T02:21:17;101846.28;;;19.16;81.15
73341;BME280;61578;52.002;5.468;2023-09-07T02:21:48;101857.25;;;19.24;80.90
73341;BME280;61578;52.002;5.468;2023-09-07T02:22:18;101859.94;;;19.24;81.25
73341;BME280;61578;52.002;5.468;2023-09-07T02:22:49;101851.00;;;19.24;81.25
73341;BME280;61578;52.002;5.468;2023-09-07T02:23:20;101839.91;;;19.17;81.78
73341;BME280;61578;52.002;5.468;2023-09-07T02:23:51;101859.81;;;19.26;81.45
73341;BME280;61578;52.002;5.468;2023-09-07T02:24:22;101849.34;;;19.23;81.16
73341;BME280;61578;52.002;5.468;2023-09-07T02:24:52;101851.53;;;19.18;81.05
73341;BME280;61578;52.002;5.468;2023-09-07T02:25:23;101861.78;;;19.24;80.73
73341;BME280;61578;52.002;5.468;2023-09-07T02:25:54;101852.72;;;19.25;81.10
73341;BME280;61578;52.002;5.468;2023-09-07T02:26:25;101851.88;;;19.24;80.79
73341;BME280;61578;52.002;5.468;2023-09-07T02:26:55;101851.88;;;19.24;80.81
73341;BME280;61578;52.002;5.468;2023-09-07T02:27:26;101865.19;;;19.26;81.01
73341;BME280;61578;52.002;5.468;2023-09-07T02:27:57;101851.63;;;19.27;81.21
73341;BME280;61578;52.002;5.468;2023-09-07T02:28:27;101847.22;;;19.26;81.08
73341;BME280;61578;52.002;5.468;2023-09-07T02:28:58;101857.00;;;19.27;80.99
73341;BME280;61578;52.002;5.468;2023-09-07T02:29:29;101858.97;;;19.25;80.83
73341;BME280;61578;52.002;5.468;2023-09-07T02:30:00;101855.16;;;19.28;81.35
73341;BME280;61578;52.002;5.468;2023-09-07T02:30:32;101848.06;;;19.27;80.69
73341;BME280;61578;52.002;5.468;2023-09-07T02:31:04;101855.28;;;19.26;81.50
73341;BME280;61578;52.002;5.468;2023-09-07T02:31:35;101859.94;;;19.24;81.13
73341;BME280;61578;52.002;5.468;2023-09-07T02:32:06;101841.38;;;19.21;81.51
73341;BME280;61578;52.002;5.468;2023-09-07T02:32:37;101854.91;;;19.31;81.54
73341;BME280;61578;52.002;5.468;2023-09-07T02:33:08;101854.19;;;19.29;81.33
73341;BME280;61578;52.002;5.468;2023-09-07T02:33:38;101842.09;;;19.23;80.91
73341;BME280;61578;52.002;5.468;2023-09-07T02:34:09;101859.44;;;19.30;81.12
73341;BME280;61578;52.002;5.468;2023-09-07T02:34:40;101855.28;;;19.26;81.01
73341;BME280;61578;52.002;5.468;2023-09-07T02:35:10;101847.09;;;19.28;80.79
73341;BME280;61578;52.002;5.468;2023-09-07T02:35:41;101857.00;;;19.27;81.06
73341;BME280;61578;52.002;5.468;2023-09-07T02:36:12;101851.75;;;19.26;81.44
73341;BME280;61578;52.002;5.468;2023-09-07T02:36:42;101852.47;;;19.28;81.60
73341;BME280;61578;52.002;5.468;2023-09-07T02:37:13;101848.19;;;19.25;81.73
73341;BME280;61578;52.002;5.468;2023-09-07T02:37:45;101851.38;;;19.30;81.37
73341;BME280;61578;52.002;5.468;2023-09-07T02:38:15;101845.63;;;19.24;81.30
73341;BME280;61578;52.002;5.468;2023-09-07T02:38:46;101852.34;;;19.29;81.13
73341;BME280;61578;52.002;5.468;2023-09-07T02:39:17;101855.03;;;19.29;81.07
73341;BME280;61578;52.002;5.468;2023-09-07T02:39:48;101854.31;;;19.27;81.29
73341;BME280;61578;52.002;5.468;2023-09-07T02:40:19;101862.13;;;19.30;81.46
73341;BME280;61578;52.002;5.468;2023-09-07T02:40:50;101849.66;;;19.29;81.22
73341;BME280;61578;52.002;5.468;2023-09-07T02:41:26;101862.13;;;19.30;81.29
73341;BME280;61578;52.002;5.468;2023-09-07T02:41:57;101856.75;;;19.30;81.40
73341;BME280;61578;52.002;5.468;2023-09-07T02:42:28;101852.34;;;19.29;81.69
73341;BME280;61578;52.002;5.468;2023-09-07T02:42:58;101853.06;;;19.31;81.62
73341;BME280;61578;52.002;5.468;2023-09-07T02:43:29;101858.34;;;19.33;81.33
73341;BME280;61578;52.002;5.468;2023-09-07T02:44:00;101860.19;;;19.32;81.20
73341;BME280;61578;52.002;5.468;2023-09-07T02:44:30;101853.06;;;19.31;80.85
73341;BME280;61578;52.002;5.468;2023-09-07T02:45:01;101859.56;;;19.29;81.06
73341;BME280;61578;52.002;5.468;2023-09-07T02:45:34;101865.81;;;19.29;80.67
73341;BME280;61578;52.002;5.468;2023-09-07T02:46:05;101865.81;;;19.29;81.29
73341;BME280;61578;52.002;5.468;2023-09-07T02:46:36;101865.09;;;19.27;81.31
73341;BME280;61578;52.002;5.468;2023-09-07T02:47:06;101865.94;;;19.28;81.08
73341;BME280;61578;52.002;5.468;2023-09-07T02:47:39;101867.78;;;19.27;81.26
73341;BME280;61578;52.002;5.468;2023-09-07T02:48:10;101869.59;;;19.27;81.08
73341;BME280;61578;52.002;5.468;2023-09-07T02:48:40;101863.38;;;19.26;81.45
73341;BME280;61578;52.002;5.468;2023-09-07T02:49:11;101861.53;;;19.27;81.27
73341;BME280;61578;52.002;5.468;2023-09-07T02:49:42;101861.53;;;19.27;81.58
73341;BME280;61578;52.002;5.468;2023-09-07T02:50:13;101865.09;;;19.27;81.27